Time;durP1;ratioP1;P1;durP2;ratioP2;P2;SDS_P1;SDS_P2;PMS_P1;PMS_P2;Temp;Humidity;BMP_temperature;BMP_pressure;BME280_temperature;BME280_humidity;BME280_pressure;Samples;Min_cycle;Max_cycle;Signal;HPM_P1;HPM_P2
2021/03/17 07:00:17;;;;;;;;;;;;;;;;;;6018276;23;1633;-68
2021/03/17 07:02:48;;;;;;;;;;;;;;;;;;4932103;29;2759;-68
2021/03/17 07:05:14;;;;;;;;;;;;;;;;;;4918788;29;810;-68
2021/03/17 07:07:51;;;;;;;;;;;;;;;;;;4918435;29;1972;-68
2021/03/17 07:10:26;;;;;;;;;;;;;;;;;;4932876;29;1343;-68
2021/03/17 07:12:53;;;;;;;;;;;;;;;;;;4943067;29;1485;-68
2021/03/17 07:15:19;;;;;;;;;;;;;;;;;;4937554;29;853;-68
2021/03/17 07:17:45;;;;;;;;;;;;;;;;;;4937443;29;833;-68
2021/03/17 07:20:10;;;;;;;;;;;;;;;;;;4936305;29;1441;-68
2021/03/17 07:22:35;;;;;;;;;;;;;;;;;;4936919;29;835;-68
2021/03/17 07:25:02;;;;;;;;;;;;;;;;;;4937293;29;1012;-68
2021/03/17 07:27:29;;;;;;;;;;;;;;;;;;4937140;29;1970;-68
2021/03/17 07:29:57;;;;;;;;;;;;;;;;;;4937284;29;782;-68
2021/03/17 07:32:22;;;;;;;;;;;;;;;;;;4935587;29;1512;-68
2021/03/17 07:34:47;;;;;;;;;;;;;;;;;;4938759;29;861;-68
2021/03/17 07:37:13;;;;;;;;;;;;;;;;;;4939887;29;1315;-68
2021/03/17 07:39:39;;;;;;;;;;;;;;;;;;4941098;29;1168;-67
2021/03/17 07:42:06;;;;;;;;;;;;;;;;;;4940906;29;1311;-68
2021/03/17 07:44:33;;;;;;;;;;;;;;;;;;4941025;29;853;-67
2021/03/17 07:47:00;;;;;;;;;;;;;;;;;;4940969;29;1899;-68
2021/03/17 07:49:26;;;;;;;;;;;;;;;;;;4939639;29;1166;-68
2021/03/17 07:51:52;;;;;;;;;;;;;;;;;;4940527;29;1406;-68
2021/03/17 07:54:20;;;;;;;;;;;;;;;;;;4939445;29;1399;-68
2021/03/17 07:56:46;;;;;;;;;;;;;;;;;;4940896;29;1199;-68
2021/03/17 07:59:11;;;;;;;;;;;;;;;;;;4939496;29;1220;-68
2021/03/17 08:01:37;;;;;;;;;;;;;;;;;;4940400;29;1295;-68
2021/03/17 08:04:03;;;;;;;;;;;;;;;;;;4940476;29;837;-68
2021/03/17 08:06:28;;;;;;;;;;;;;;;;;;4940544;29;1899;-68
2021/03/17 08:08:56;;;;;;;;;;;;;;;;;;4939324;29;874;-68
2021/03/17 08:11:23;;;;;;;;;;;;;;;;;;4940544;29;1402;-68
2021/03/17 08:13:49;;;;;;;;;;;;;;;;;;4940508;29;897;-68
2021/03/17 08:16:21;;;;;;;;;;;;;;;;;;4940311;29;913;-68
2021/03/17 08:18:48;;;;;;;;;;;;;;;;;;4940464;29;909;-68
2021/03/17 08:21:13;;;;;;;;;;;;;;;;;;4940275;29;1291;-68
2021/03/17 08:23:38;;;;;;;;;;;;;;;;;;4938894;29;1472;-68
2021/03/17 08:26:04;;;;;;;;;;;;;;;;;;4940264;29;1895;-68
2021/03/17 08:28:29;;;;;;;;;;;;;;;;;;4939038;29;1347;-68
2021/03/17 08:30:58;;;;;;;;;;;;;;;;;;4938648;29;1342;-69
2021/03/17 08:33:29;;;;;;;;;;;;;;;;;;4940026;29;841;-68
2021/03/17 08:36:02;;;;;;;;;;;;;;;;;;4938965;29;1222;-69
2021/03/17 08:38:54;;;;;;;;;;;;;;;;;;4940005;29;884;-68
2021/03/17 08:41:38;;;;;;;;;;;;;;;;;;4938796;29;1271;-68
2021/03/17 08:44:13;;;;;;;;;;;;;;;;;;4938538;29;1230;-68
2021/03/17 08:46:38;;;;;;;;;;;;;;;;;;4939229;29;1942;-68
2021/03/17 08:49:05;;;;;;;;;;;;;;;;;;4939836;29;877;-68
2021/03/17 08:51:45;;;;;;;;;;;;;;;;;;4939639;29;1429;-68
2021/03/17 08:54:29;;;;;;;;;;;;;;;;;;4939708;29;857;-68
2021/03/17 08:56:55;;;;;;;;;;;;;;;;;;4939715;29;798;-68
2021/03/17 08:59:20;;;;;;;;;;;;;;;;;;4939922;29;814;-68
2021/03/17 09:01:45;;;;;;;;;;;;;;;;;;4939462;29;1390;-68
2021/03/17 09:04:10;;;;;;;;;;;;;;;;;;4938125;29;822;-68
2021/03/17 09:06:36;;;;;;;;;;;;;;;;;;4938137;29;1906;-68
2021/03/17 09:09:06;;;;;;;;;;;;;;;;;;4939521;29;845;-68
2021/03/17 09:11:31;;;;;;;;;;;;;;;;;;4938365;29;1466;-68
2021/03/17 09:13:57;;;;;;;;;;;;;;;;;;4939309;29;837;-68
2021/03/17 09:16:23;;;;;;;;;;;;;;;;;;4939439;29;814;-68
2021/03/17 09:19:10;;;;;;;;;;;;;;;;;;4938247;29;1126;-68
2021/03/17 09:21:37;;;;;;;;;;;;;;;;;;4938269;29;1375;-68
2021/03/17 09:24:03;;;;;;;;;;;;;;;;;;4939043;29;885;-69
2021/03/17 09:26:29;;;;;;;;;;;;;;;;;;4939089;29;1891;-68
2021/03/17 09:28:54;;;;;;;;;;;;;;;;;;4937989;29;956;-69
2021/03/17 09:31:22;;;;;;;;;;;;;;;;;;4937697;29;1298;-68
2021/03/17 09:33:47;;;;;;;;;;;;;;;;;;4937566;29;905;-69
2021/03/17 09:36:22;;;;;;;;;;;;;;;;;;4937991;29;1519;-69
2021/03/17 09:38:50;;;;;;;;;;;;;;;;;;4939078;29;817;-68
2021/03/17 09:41:17;;;;;;;;;;;;;;;;;;4938842;29;1417;-69
2021/03/17 09:43:49;;;;;;;;;;;;;;;;;;4938656;29;951;-69
2021/03/17 09:46:31;;;;;;;;;;;;;;;;;;4938805;29;1899;-69
2021/03/17 09:49:04;;;;;;;;;;;;;;;;;;4938834;29;838;-69
2021/03/17 09:51:31;;;;;;;;;;;;;;;;;;4937415;29;1351;-69
2021/03/17 09:53:58;;;;;;;;;;;;;;;;;;4937307;29;1507;-68
2021/03/17 09:56:37;;;;;;;;;;;;;;;;;;4936997;29;1209;-68
2021/03/17 09:59:19;;;;;;;;;;;;;;;;;;4938380;29;865;-68
2021/03/17 10:01:56;;;;;;;;;;;;;;;;;;4938180;29;1311;-68
2021/03/17 10:04:23;;;;;;;;;;;;;;;;;;4938518;29;854;-68
2021/03/17 10:06:48;;;;;;;;;;;;;;;;;;4937118;29;2011;-68
2021/03/17 10:09:13;;;;;;;;;;;;;;;;;;4938372;29;774;-67
2021/03/17 10:11:39;;;;;;;;;;;;;;;;;;4937394;29;1453;-67
2021/03/17 10:14:14;;;;;;;;;;;;;;;;;;4937884;29;936;-68
2021/03/17 10:16:40;;;;;;;;;;;;;;;;;;4938287;29;826;-67
2021/03/17 10:19:05;;;;;;;;;;;;;;;;;;4938277;29;841;-67
2021/03/17 10:21:31;;;;;;;;;;;;;;;;;;4938218;29;1338;-67
2021/03/17 10:23:56;;;;;;;;;;;;;;;;;;4937669;29;877;-67
2021/03/17 10:26:21;;;;;;;;;;;;;;;;;;4936947;29;1954;-67
2021/03/17 10:28:47;;;;;;;;;;;;;;;;;;4938394;29;873;-67
2021/03/17 10:31:12;;;;;;;;;;;;;;;;;;4937936;29;1438;-68
2021/03/17 10:33:37;;;;;;;;;;;;;;;;;;4937937;29;1048;-68
2021/03/17 10:36:03;;;;;;;;;;;;;;;;;;4937990;29;803;-68
2021/03/17 10:38:28;;;;;;;;;;;;;;;;;;4937568;29;911;-68
2021/03/17 10:40:53;;;;;;;;;;;;;;;;;;4937795;29;1311;-68
2021/03/17 10:43:19;;;;;;;;;;;;;;;;;;4936231;29;799;-68
2021/03/17 10:45:47;;;;;;;;;;;;;;;;;;4937638;29;861;-68
2021/03/17 10:48:13;;;;;;;;;;;;;;;;;;4936021;29;1906;-67
2021/03/17 10:50:38;;;;;;;;;;;;;;;;;;4937554;29;1382;-67
2021/03/17 10:53:14;;;;;;;;;;;;;;;;;;4937240;29;836;-67
2021/03/17 10:55:39;;;;;;;;;;;;;;;;;;4937000;29;873;-67
2021/03/17 10:58:08;;;;;;;;;;;;;;;;;;4952237;29;1117;-67
2021/03/17 11:00:33;;;;;;;;;;;;;;;;;;4937158;29;1382;-67
2021/03/17 11:02:59;;;;;;;;;;;;;;;;;;4937287;29;909;-67
2021/03/17 11:05:32;;;;;;;;;;;;;;;;;;4936048;29;1333;-68
2021/03/17 11:08:06;;;;;;;;;;;;;;;;;;4935982;29;1965;-68
2021/03/17 11:10:34;;;;;;;;;;;;;;;;;;4937469;29;1410;-68
2021/03/17 11:13:08;;;;;;;;;;;;;;;;;;4937403;29;884;-68
2021/03/17 11:15:34;;;;;;;;;;;;;;;;;;4935923;29;1700;-68
2021/03/17 11:17:59;;;;;;;;;;;;;;;;;;4936167;29;1301;-68
2021/03/17 11:20:25;;;;;;;;;;;;;;;;;;4937271;29;1326;-68
2021/03/17 11:22:51;;;;;;;;;;;;;;;;;;4937355;29;892;-68
2021/03/17 11:25:26;;;;;;;;;;;;;;;;;;4939238;29;853;-68
2021/03/17 11:27:51;;;;;;;;;;;;;;;;;;4936094;29;1927;-68
2021/03/17 11:30:17;;;;;;;;;;;;;;;;;;4937464;29;1370;-68
2021/03/17 11:32:42;;;;;;;;;;;;;;;;;;4935831;29;1321;-68
2021/03/17 11:35:07;;;;;;;;;;;;;;;;;;4937103;29;799;-68
2021/03/17 11:37:33;;;;;;;;;;;;;;;;;;4937155;29;1137;-68
2021/03/17 11:39:58;;;;;;;;;;;;;;;;;;4935860;29;1325;-68
2021/03/17 11:42:23;;;;;;;;;;;;;;;;;;4935906;29;1390;-68
2021/03/17 11:44:49;;;;;;;;;;;;;;;;;;4937184;29;885;-68
2021/03/17 11:47:14;;;;;;;;;;;;;;;;;;4937103;29;1962;-69
2021/03/17 11:49:39;;;;;;;;;;;;;;;;;;4937111;29;810;-68
2021/03/17 11:52:05;;;;;;;;;;;;;;;;;;4935639;29;1380;-68
2021/03/17 11:54:31;;;;;;;;;;;;;;;;;;4937068;29;830;-68
2021/03/17 11:56:56;;;;;;;;;;;;;;;;;;4937083;29;822;-68
2021/03/17 11:59:22;;;;;;;;;;;;;;;;;;4935940;29;1398;-68
2021/03/17 12:01:47;;;;;;;;;;;;;;;;;;4935259;29;1327;-68
2021/03/17 12:04:12;;;;;;;;;;;;;;;;;;4936899;29;830;-68
2021/03/17 12:06:37;;;;;;;;;;;;;;;;;;4936910;29;1985;-68
2021/03/17 12:09:03;;;;;;;;;;;;;;;;;;4935644;29;1196;-68
2021/03/17 12:11:29;;;;;;;;;;;;;;;;;;4935655;29;1398;-68
2021/03/17 12:13:54;;;;;;;;;;;;;;;;;;4936838;29;857;-68
2021/03/17 12:16:20;;;;;;;;;;;;;;;;;;4937112;29;844;-69
2021/03/17 12:18:46;;;;;;;;;;;;;;;;;;4936637;29;822;-70
2021/03/17 12:21:11;;;;;;;;;;;;;;;;;;4938889;29;1292;-68
2021/03/17 12:23:37;;;;;;;;;;;;;;;;;;4940249;29;921;-68
2021/03/17 12:26:02;;;;;;;;;;;;;;;;;;4940359;29;869;-68
2021/03/17 12:28:27;;;;;;;;;;;;;;;;;;4940127;29;1951;-68
2021/03/17 12:30:53;;;;;;;;;;;;;;;;;;4939773;29;1343;-68
2021/03/17 12:33:18;;;;;;;;;;;;;;;;;;4939496;29;941;-68
2021/03/17 12:35:43;;;;;;;;;;;;;;;;;;4939858;29;850;-69
2021/03/17 12:38:09;;;;;;;;;;;;;;;;;;4939711;29;1109;-68
2021/03/17 12:40:34;;;;;;;;;;;;;;;;;;4939765;29;1311;-68
2021/03/17 12:43:00;;;;;;;;;;;;;;;;;;4939568;29;928;-68
2021/03/17 12:45:26;;;;;;;;;;;;;;;;;;4939621;29;822;-68
2021/03/17 12:47:52;;;;;;;;;;;;;;;;;;4939372;29;1890;-68
2021/03/17 12:50:18;;;;;;;;;;;;;;;;;;4939547;29;1284;-68
2021/03/17 12:52:43;;;;;;;;;;;;;;;;;;4939616;29;786;-68
2021/03/17 12:55:10;;;;;;;;;;;;;;;;;;4939440;29;936;-69
2021/03/17 12:57:35;;;;;;;;;;;;;;;;;;4938807;29;1542;-68
2021/03/17 13:00:01;;;;;;;;;;;;;;;;;;4928719;29;1471;-68
2021/03/17 13:02:26;;;;;;;;;;;;;;;;;;4931011;29;1375;-68
2021/03/17 13:04:53;;;;;;;;;;;;;;;;;;4931000;29;1549;-68
2021/03/17 13:07:19;;;;;;;;;;;;;;;;;;4929062;29;1903;-68
2021/03/17 13:09:44;;;;;;;;;;;;;;;;;;4932428;29;1436;-68
2021/03/17 13:12:10;;;;;;;;;;;;;;;;;;4939041;29;1697;-68
2021/03/17 13:14:35;;;;;;;;;;;;;;;;;;4939549;29;984;-69
2021/03/17 13:17:00;;;;;;;;;;;;;;;;;;4939810;29;927;-68
2021/03/17 13:19:25;;;;;;;;;;;;;;;;;;4939508;29;1952;-68
2021/03/17 13:21:51;;;;;;;;;;;;;;;;;;4939389;29;1307;-69
2021/03/17 13:24:17;;;;;;;;;;;;;;;;;;4937995;29;896;-69
2021/03/17 13:26:42;;;;;;;;;;;;;;;;;;4937901;29;1961;-69
2021/03/17 13:29:07;;;;;;;;;;;;;;;;;;4938129;29;1246;-69
2021/03/17 13:31:33;;;;;;;;;;;;;;;;;;4939170;29;1434;-69
2021/03/17 13:33:58;;;;;;;;;;;;;;;;;;4937655;29;1447;-69
2021/03/17 13:36:23;;;;;;;;;;;;;;;;;;4938075;29;1346;-69
2021/03/17 13:38:49;;;;;;;;;;;;;;;;;;4939353;29;838;-70
2021/03/17 13:41:14;;;;;;;;;;;;;;;;;;4939091;29;1369;-69
2021/03/17 13:43:39;;;;;;;;;;;;;;;;;;4937695;29;1243;-70
2021/03/17 13:46:05;;;;;;;;;;;;;;;;;;4938937;29;810;-68
2021/03/17 13:48:30;;;;;;;;;;;;;;;;;;4940070;29;1972;-68
2021/03/17 13:50:56;;;;;;;;;;;;;;;;;;4937684;29;1453;-69
2021/03/17 13:53:21;;;;;;;;;;;;;;;;;;4938594;29;894;-69
2021/03/17 13:55:46;;;;;;;;;;;;;;;;;;4939592;29;1335;-69
2021/03/17 13:58:12;;;;;;;;;;;;;;;;;;4937694;29;866;-68
2021/03/17 14:00:37;;;;;;;;;;;;;;;;;;4938549;29;1334;-69
2021/03/17 14:03:03;;;;;;;;;;;;;;;;;;4938828;29;834;-70
2021/03/17 14:05:28;;;;;;;;;;;;;;;;;;4938513;29;802;-69
2021/03/17 14:07:54;;;;;;;;;;;;;;;;;;4938672;29;1973;-68
2021/03/17 14:10:23;;;;;;;;;;;;;;;;;;4938718;29;1303;-69
2021/03/17 14:12:49;;;;;;;;;;;;;;;;;;4936961;29;1202;-69
2021/03/17 14:15:15;;;;;;;;;;;;;;;;;;4936966;29;1226;-69
2021/03/17 14:17:42;;;;;;;;;;;;;;;;;;4938461;29;893;-69
2021/03/17 14:20:08;;;;;;;;;;;;;;;;;;4936872;29;1358;-69
2021/03/17 14:22:34;;;;;;;;;;;;;;;;;;4938094;29;931;-68
2021/03/17 14:25:07;;;;;;;;;;;;;;;;;;4936767;29;1132;-68
2021/03/17 14:27:33;;;;;;;;;;;;;;;;;;4938133;29;1899;-68
2021/03/17 14:29:58;;;;;;;;;;;;;;;;;;4938151;29;1175;-69
2021/03/17 14:32:24;;;;;;;;;;;;;;;;;;4937710;29;1351;-69
2021/03/17 14:34:49;;;;;;;;;;;;;;;;;;4938087;29;888;-69
2021/03/17 14:37:15;;;;;;;;;;;;;;;;;;4937990;29;861;-69
2021/03/17 14:39:40;;;;;;;;;;;;;;;;;;4937883;29;825;-68
2021/03/17 14:42:06;;;;;;;;;;;;;;;;;;4937611;29;1425;-69
2021/03/17 14:44:31;;;;;;;;;;;;;;;;;;4936081;29;1456;-69
2021/03/17 14:46:56;;;;;;;;;;;;;;;;;;4937289;29;1911;-70
2021/03/17 14:49:22;;;;;;;;;;;;;;;;;;4937774;29;838;-68
2021/03/17 14:51:47;;;;;;;;;;;;;;;;;;4936493;29;1442;-69
2021/03/17 14:54:12;;;;;;;;;;;;;;;;;;4936452;29;1323;-69
2021/03/17 14:56:38;;;;;;;;;;;;;;;;;;4937666;29;815;-69
2021/03/17 14:59:03;;;;;;;;;;;;;;;;;;4936193;29;1333;-68
2021/03/17 15:01:29;;;;;;;;;;;;;;;;;;4937412;29;1366;-69
2021/03/17 15:03:54;;;;;;;;;;;;;;;;;;4937385;29;822;-69
2021/03/17 15:06:20;;;;;;;;;;;;;;;;;;4936155;29;1907;-67
2021/03/17 15:08:46;;;;;;;;;;;;;;;;;;4937201;29;849;-68
2021/03/17 15:11:11;;;;;;;;;;;;;;;;;;4937039;29;1347;-69
2021/03/17 15:13:36;;;;;;;;;;;;;;;;;;4937254;29;858;-68
2021/03/17 15:16:01;;;;;;;;;;;;;;;;;;4936302;29;1211;-68
2021/03/17 15:18:27;;;;;;;;;;;;;;;;;;4936201;29;1332;-69
2021/03/17 15:20:52;;;;;;;;;;;;;;;;;;4937359;29;1397;-68
2021/03/17 15:23:20;;;;;;;;;;;;;;;;;;4935759;29;1222;-68
2021/03/17 15:25:46;;;;;;;;;;;;;;;;;;4937217;29;830;-68
2021/03/17 15:28:12;;;;;;;;;;;;;;;;;;4936140;29;1954;-68
2021/03/17 15:30:39;;;;;;;;;;;;;;;;;;4936044;29;1484;-68
2021/03/17 15:33:11;;;;;;;;;;;;;;;;;;4937158;29;909;-67
2021/03/17 15:35:37;;;;;;;;;;;;;;;;;;4937459;29;815;-67
2021/03/17 15:38:04;;;;;;;;;;;;;;;;;;4937067;29;833;-68
2021/03/17 15:40:31;;;;;;;;;;;;;;;;;;4937029;29;1351;-69
2021/03/17 15:42:57;;;;;;;;;;;;;;;;;;4935589;29;1423;-72
2021/03/17 15:45:22;;;;;;;;;;;;;;;;;;4935694;29;1247;-73
2021/03/17 15:47:48;;;;;;;;;;;;;;;;;;4937123;29;1899;-73
2021/03/17 15:50:15;;;;;;;;;;;;;;;;;;4937030;29;1315;-73
2021/03/17 15:52:40;;;;;;;;;;;;;;;;;;4936786;29;967;-73
2021/03/17 15:55:06;;;;;;;;;;;;;;;;;;4937580;29;878;-73
2021/03/17 15:57:32;;;;;;;;;;;;;;;;;;4940867;29;806;-73
2021/03/17 15:59:57;;;;;;;;;;;;;;;;;;4940789;29;941;-73
2021/03/17 16:02:23;;;;;;;;;;;;;;;;;;4940294;29;1315;-73
2021/03/17 16:04:48;;;;;;;;;;;;;;;;;;4940487;29;811;-73
2021/03/17 16:07:13;;;;;;;;;;;;;;;;;;4939680;29;1965;-73
2021/03/17 16:09:38;;;;;;;;;;;;;;;;;;4940536;29;905;-73
2021/03/17 16:12:04;;;;;;;;;;;;;;;;;;4940428;29;1394;-74
2021/03/17 16:14:29;;;;;;;;;;;;;;;;;;4940428;29;889;-74
2021/03/17 16:16:55;;;;;;;;;;;;;;;;;;4940604;29;869;-74
2021/03/17 16:19:20;;;;;;;;;;;;;;;;;;4939421;29;1440;-75
2021/03/17 16:21:45;;;;;;;;;;;;;;;;;;4940542;29;1394;-74
2021/03/17 16:24:11;;;;;;;;;;;;;;;;;;4939139;29;1356;-74
2021/03/17 16:26:36;;;;;;;;;;;;;;;;;;4940333;29;1903;-74
2021/03/17 16:29:01;;;;;;;;;;;;;;;;;;4940351;29;1067;-74
2021/03/17 16:31:26;;;;;;;;;;;;;;;;;;4938945;29;1339;-74
2021/03/17 16:33:52;;;;;;;;;;;;;;;;;;4955068;29;913;-75
2021/03/17 16:36:17;;;;;;;;;;;;;;;;;;4938172;29;1226;-72
2021/03/17 16:38:44;;;;;;;;;;;;;;;;;;4940177;29;818;-72
2021/03/17 16:41:09;;;;;;;;;;;;;;;;;;4940004;29;1307;-73
2021/03/17 16:43:35;;;;;;;;;;;;;;;;;;4938842;29;1317;-74
2021/03/17 16:46:00;;;;;;;;;;;;;;;;;;4939916;29;925;-72
2021/03/17 16:48:26;;;;;;;;;;;;;;;;;;4939737;29;1891;-74
2021/03/17 16:50:51;;;;;;;;;;;;;;;;;;4939961;29;1299;-71
2021/03/17 16:53:16;;;;;;;;;;;;;;;;;;4938368;29;1208;-72
2021/03/17 16:55:42;;;;;;;;;;;;;;;;;;4939773;29;876;-72
2021/03/17 16:58:07;;;;;;;;;;;;;;;;;;4939643;29;842;-74
2021/03/17 17:00:32;;;;;;;;;;;;;;;;;;4939539;29;1335;-72
2021/03/17 17:02:57;;;;;;;;;;;;;;;;;;4938067;29;1399;-72
2021/03/17 17:05:23;;;;;;;;;;;;;;;;;;4939829;29;869;-72
2021/03/17 17:07:48;;;;;;;;;;;;;;;;;;4939126;29;1962;-71
2021/03/17 17:10:14;;;;;;;;;;;;;;;;;;4939401;29;1331;-72
2021/03/17 17:12:40;;;;;;;;;;;;;;;;;;4938158;29;1213;-73
2021/03/17 17:15:07;;;;;;;;;;;;;;;;;;4939461;29;885;-71
2021/03/17 17:17:32;;;;;;;;;;;;;;;;;;4938035;29;1183;-71
2021/03/17 17:19:57;;;;;;;;;;;;;;;;;;4939404;29;880;-72
2021/03/17 17:22:22;;;;;;;;;;;;;;;;;;4937838;29;1461;-72
2021/03/17 17:24:48;;;;;;;;;;;;;;;;;;4939440;29;917;-73
2021/03/17 17:27:13;;;;;;;;;;;;;;;;;;4939362;29;1952;-72
2021/03/17 17:29:39;;;;;;;;;;;;;;;;;;4939211;29;980;-72
2021/03/17 17:32:04;;;;;;;;;;;;;;;;;;4939090;29;1291;-73
2021/03/17 17:34:30;;;;;;;;;;;;;;;;;;4938817;29;1038;-73
2021/03/17 17:36:55;;;;;;;;;;;;;;;;;;4939205;29;888;-73
2021/03/17 17:39:20;;;;;;;;;;;;;;;;;;4937967;29;1133;-73
2021/03/17 17:41:45;;;;;;;;;;;;;;;;;;4937708;29;1553;-73
2021/03/17 17:44:11;;;;;;;;;;;;;;;;;;4938658;29;968;-73
2021/03/17 17:46:36;;;;;;;;;;;;;;;;;;4938968;29;1899;-73
2021/03/17 17:49:01;;;;;;;;;;;;;;;;;;4938891;29;924;-73
2021/03/17 17:51:26;;;;;;;;;;;;;;;;;;4937605;29;1291;-73
2021/03/17 17:53:52;;;;;;;;;;;;;;;;;;4937285;29;1191;-73
2021/03/17 17:56:17;;;;;;;;;;;;;;;;;;4937481;29;862;-72
2021/03/17 17:58:42;;;;;;;;;;;;;;;;;;4937193;29;1223;-72
2021/03/17 18:01:08;;;;;;;;;;;;;;;;;;4938539;29;1331;-72
2021/03/17 18:03:33;;;;;;;;;;;;;;;;;;4938527;29;833;-73
2021/03/17 18:05:58;;;;;;;;;;;;;;;;;;4938578;29;806;-73
2021/03/17 18:08:23;;;;;;;;;;;;;;;;;;4937158;29;1911;-73
2021/03/17 18:10:49;;;;;;;;;;;;;;;;;;4938135;29;1339;-74
2021/03/17 18:13:14;;;;;;;;;;;;;;;;;;4938246;29;976;-73
2021/03/17 18:15:39;;;;;;;;;;;;;;;;;;4937294;29;865;-74
2021/03/17 18:18:05;;;;;;;;;;;;;;;;;;4936347;29;928;-74
2021/03/17 18:20:31;;;;;;;;;;;;;;;;;;4938193;29;1453;-73
2021/03/17 18:22:59;;;;;;;;;;;;;;;;;;4937994;29;912;-74
2021/03/17 18:25:24;;;;;;;;;;;;;;;;;;4936817;29;1011;-74
2021/03/17 18:27:49;;;;;;;;;;;;;;;;;;4938010;29;1902;-73
2021/03/17 18:30:16;;;;;;;;;;;;;;;;;;4938105;29;1418;-73
2021/03/17 18:32:42;;;;;;;;;;;;;;;;;;4937861;29;1129;-73
2021/03/17 18:35:09;;;;;;;;;;;;;;;;;;4936475;29;1349;-74
2021/03/17 18:37:34;;;;;;;;;;;;;;;;;;4937841;29;908;-74
2021/03/17 18:40:00;;;;;;;;;;;;;;;;;;4937849;29;886;-74
2021/03/17 18:42:25;;;;;;;;;;;;;;;;;;4937623;29;1413;-73
2021/03/17 18:44:51;;;;;;;;;;;;;;;;;;4937731;29;991;-74
2021/03/17 18:47:16;;;;;;;;;;;;;;;;;;4936407;29;1906;-74
2021/03/17 18:49:41;;;;;;;;;;;;;;;;;;4938040;29;886;-74
2021/03/17 18:52:07;;;;;;;;;;;;;;;;;;4937561;29;1330;-74
2021/03/17 18:54:32;;;;;;;;;;;;;;;;;;4938124;29;896;-74
2021/03/17 18:56:57;;;;;;;;;;;;;;;;;;4937664;29;897;-74
2021/03/17 18:59:22;;;;;;;;;;;;;;;;;;4937987;29;846;-73
2021/03/17 19:01:48;;;;;;;;;;;;;;;;;;4937495;29;1394;-73
2021/03/17 19:04:13;;;;;;;;;;;;;;;;;;4936229;29;1340;-73
2021/03/17 19:06:39;;;;;;;;;;;;;;;;;;4937604;29;1976;-73
2021/03/17 19:09:05;;;;;;;;;;;;;;;;;;4935976;29;1504;-73
2021/03/17 19:11:30;;;;;;;;;;;;;;;;;;4936120;29;1445;-73
2021/03/17 19:13:55;;;;;;;;;;;;;;;;;;4937440;29;913;-73
2021/03/17 19:16:21;;;;;;;;;;;;;;;;;;4936477;29;929;-73
2021/03/17 19:18:46;;;;;;;;;;;;;;;;;;4937539;29;829;-73
2021/03/17 19:21:13;;;;;;;;;;;;;;;;;;4935863;29;1389;-73
2021/03/17 19:23:39;;;;;;;;;;;;;;;;;;4937098;29;893;-73
2021/03/17 19:26:05;;;;;;;;;;;;;;;;;;4952062;29;1493;-73
2021/03/17 19:28:31;;;;;;;;;;;;;;;;;;4935881;29;1957;-73
2021/03/17 19:30:57;;;;;;;;;;;;;;;;;;4943095;29;1319;-73
2021/03/17 19:33:24;;;;;;;;;;;;;;;;;;4942109;29;1264;-74
2021/03/17 19:35:49;;;;;;;;;;;;;;;;;;4943212;29;863;-76
2021/03/17 19:38:15;;;;;;;;;;;;;;;;;;4942244;29;830;-75
2021/03/17 19:40:42;;;;;;;;;;;;;;;;;;4942150;29;1354;-75
2021/03/17 19:43:08;;;;;;;;;;;;;;;;;;4942169;29;1415;-75
2021/03/17 19:45:33;;;;;;;;;;;;;;;;;;4943330;29;889;-75
2021/03/17 19:47:59;;;;;;;;;;;;;;;;;;4943418;29;1956;-75
2021/03/17 19:50:27;;;;;;;;;;;;;;;;;;4941595;29;1454;-75
2021/03/17 19:52:53;;;;;;;;;;;;;;;;;;4942618;29;1073;-76
2021/03/17 19:55:20;;;;;;;;;;;;;;;;;;5267737;23;2058;-71
2021/03/17 19:57:45;;;;;;;;;;;;;;;;;;4970617;28;1370;-71
2021/03/17 20:00:13;;;;;;;;;;;;;;;;;;4962249;28;991;-71
2021/03/17 20:02:38;;;;;;;;;;;;;;;;;;4961875;28;872;-72
2021/03/17 20:05:04;;;;;;;;;;;;;;;;;;4961915;28;1291;-71
2021/03/17 20:07:29;;;;;;;;;;;;;;;;;;4962130;28;1985;-71
2021/03/17 20:09:57;;;;;;;;;;;;;;;;;;4962107;28;928;-71
2021/03/17 20:12:23;;;;;;;;;;;;;;;;;;4960604;29;1252;-72
2021/03/17 20:14:48;;;;;;;;;;;;;;;;;;4961671;28;1294;-72
2021/03/17 20:17:13;;;;;;;;;;;;;;;;;;4959688;28;1201;-72
2021/03/17 20:19:38;;;;;;;;;;;;;;;;;;4961559;28;860;-72
2021/03/17 20:40:17;;;;;;;;;;;;;;;;;;5682673;23;1621;-65
2021/03/17 20:42:43;;;;;;;;;;;;;;;;;;4957700;28;859;-67
2021/03/17 20:45:10;;;;;;;;;;;;;;;;;;4958589;28;805;-67
2021/03/17 20:47:36;;;;;;;;;;;;;;;;;;4958153;28;1911;-67
2021/03/17 20:50:02;;;;;;;;;;;;;;;;;;4958954;28;1403;-67
2021/03/17 20:52:28;;;;;;;;;;;;;;;;;;4973613;28;1320;-67
2021/03/17 20:54:53;;;;;;;;;;;;;;;;;;4957594;29;845;-67
2021/03/17 20:57:18;;;;;;;;;;;;;;;;;;4958865;29;868;-67
2021/03/17 20:59:43;;;;;;;;;;;;;;;;;;4958855;29;1327;-67
2021/03/17 21:02:09;;;;;;;;;;;;;;;;;;4957284;29;1223;-67
2021/03/17 21:04:34;;;;;;;;;;;;;;;;;;4958908;29;806;-67
2021/03/17 21:07:00;;;;;;;;;;;;;;;;;;4958589;28;1891;-66
2021/03/17 21:09:26;;;;;;;;;;;;;;;;;;4958876;28;1330;-66
2021/03/17 21:11:52;;;;;;;;;;;;;;;;;;4958525;29;829;-66
2021/03/17 21:14:17;;;;;;;;;;;;;;;;;;4958788;28;817;-67
2021/03/17 21:16:42;;;;;;;;;;;;;;;;;;4958436;29;826;-67
2021/03/17 21:19:08;;;;;;;;;;;;;;;;;;4958669;28;907;-67
2021/03/17 21:21:33;;;;;;;;;;;;;;;;;;4958498;29;1417;-67
2021/03/17 21:23:58;;;;;;;;;;;;;;;;;;4958001;29;1000;-67
2021/03/17 21:26:24;;;;;;;;;;;;;;;;;;4957873;29;841;-66
2021/03/17 21:28:49;;;;;;;;;;;;;;;;;;4956506;29;1890;-66
2021/03/17 21:31:14;;;;;;;;;;;;;;;;;;4956448;29;1456;-67
2021/03/17 21:33:40;;;;;;;;;;;;;;;;;;4957586;29;860;-66
2021/03/17 21:36:05;;;;;;;;;;;;;;;;;;4957717;28;920;-66
2021/03/17 21:38:30;;;;;;;;;;;;;;;;;;4957846;29;841;-66
2021/03/17 21:40:56;;;;;;;;;;;;;;;;;;4957537;29;1310;-65
2021/03/17 21:43:22;;;;;;;;;;;;;;;;;;4957352;28;1027;-66
2021/03/17 21:45:49;;;;;;;;;;;;;;;;;;4957363;28;872;-66
2021/03/17 21:48:16;;;;;;;;;;;;;;;;;;4957444;28;1903;-65
2021/03/17 21:50:48;;;;;;;;;;;;;;;;;;4957048;28;1318;-66
2021/03/17 21:53:15;;;;;;;;;;;;;;;;;;4955094;28;1312;-66
2021/03/17 21:55:41;;;;;;;;;;;;;;;;;;4956079;29;1218;-67
2021/03/17 21:58:06;;;;;;;;;;;;;;;;;;4957416;28;1051;-65
2021/03/17 22:00:31;;;;;;;;;;;;;;;;;;4957220;29;1307;-65
2021/03/17 22:02:57;;;;;;;;;;;;;;;;;;4957133;29;934;-65
2021/03/17 22:05:22;;;;;;;;;;;;;;;;;;4957248;29;941;-65
2021/03/17 22:07:47;;;;;;;;;;;;;;;;;;4957101;29;1895;-65
2021/03/17 22:10:14;;;;;;;;;;;;;;;;;;4956864;29;1328;-65
2021/03/17 22:12:40;;;;;;;;;;;;;;;;;;4955376;29;1268;-65
2021/03/17 22:15:06;;;;;;;;;;;;;;;;;;4957188;29;901;-65
2021/03/17 22:17:31;;;;;;;;;;;;;;;;;;4957117;28;920;-65
2021/03/17 22:19:56;;;;;;;;;;;;;;;;;;4956991;29;1279;-65
2021/03/17 22:22:22;;;;;;;;;;;;;;;;;;4955265;29;2281;-66
2021/03/17 22:24:47;;;;;;;;;;;;;;;;;;4955227;29;1396;-66
2021/03/17 22:27:12;;;;;;;;;;;;;;;;;;4956857;29;1890;-66
2021/03/17 22:29:37;;;;;;;;;;;;;;;;;;4956413;29;1447;-66
2021/03/17 22:32:03;;;;;;;;;;;;;;;;;;4955089;29;1218;-67
2021/03/17 22:34:28;;;;;;;;;;;;;;;;;;4956725;28;1081;-66
2021/03/17 22:36:53;;;;;;;;;;;;;;;;;;4956684;28;916;-66
2021/03/17 22:39:19;;;;;;;;;;;;;;;;;;4956663;29;1390;-66
2021/03/17 22:41:44;;;;;;;;;;;;;;;;;;4956283;29;1062;-65
2021/03/17 22:44:09;;;;;;;;;;;;;;;;;;4956504;29;897;-67
2021/03/17 22:46:34;;;;;;;;;;;;;;;;;;4956406;29;1906;-65
2021/03/17 22:49:00;;;;;;;;;;;;;;;;;;4955456;29;1134;-65
2021/03/17 22:51:26;;;;;;;;;;;;;;;;;;4956248;29;1299;-65
2021/03/17 22:53:51;;;;;;;;;;;;;;;;;;4954784;29;1366;-65
2021/03/17 22:56:16;;;;;;;;;;;;;;;;;;4956393;28;1039;-65
2021/03/17 22:58:41;;;;;;;;;;;;;;;;;;4955369;29;1536;-65
2021/03/17 23:01:08;;;;;;;;;;;;;;;;;;4956151;29;1311;-64
2021/03/17 23:03:34;;;;;;;;;;;;;;;;;;4954448;28;1351;-64
2021/03/17 23:06:00;;;;;;;;;;;;;;;;;;4955815;28;940;-65
2021/03/17 23:08:35;;;;;;;;;;;;;;;;;;4956267;28;1957;-64
2021/03/17 23:11:12;;;;;;;;;;;;;;;;;;4955987;29;1303;-64
2021/03/17 23:13:38;;;;;;;;;;;;;;;;;;4955958;29;800;-64
2021/03/17 23:16:05;;;;;;;;;;;;;;;;;;4956108;28;832;-64
2021/03/17 23:18:32;;;;;;;;;;;;;;;;;;4954569;29;1222;-64
2021/03/17 23:20:59;;;;;;;;;;;;;;;;;;4954803;29;1608;-64
2021/03/17 23:23:29;;;;;;;;;;;;;;;;;;4955823;28;887;-64
2021/03/17 23:25:56;;;;;;;;;;;;;;;;;;4955677;28;904;-64
2021/03/17 23:28:21;;;;;;;;;;;;;;;;;;4956117;28;1899;-64
2021/03/17 23:30:49;;;;;;;;;;;;;;;;;;4955848;29;1335;-64
2021/03/17 23:33:14;;;;;;;;;;;;;;;;;;4955661;28;1007;-65
2021/03/17 23:35:41;;;;;;;;;;;;;;;;;;4954866;29;1435;-66
2021/03/17 23:38:08;;;;;;;;;;;;;;;;;;4954356;29;853;-64
2021/03/17 23:40:42;;;;;;;;;;;;;;;;;;4955823;28;1331;-65
2021/03/17 23:43:07;;;;;;;;;;;;;;;;;;4955588;28;881;-65
2021/03/17 23:45:34;;;;;;;;;;;;;;;;;;4955835;28;901;-65
2021/03/17 23:48:00;;;;;;;;;;;;;;;;;;4955012;29;1898;-64
2021/03/17 23:50:28;;;;;;;;;;;;;;;;;;4954942;29;1434;-64
2021/03/17 23:52:54;;;;;;;;;;;;;;;;;;4955947;28;846;-65
2021/03/17 23:55:23;;;;;;;;;;;;;;;;;;4956352;29;1015;-65
2021/03/17 23:57:48;;;;;;;;;;;;;;;;;;4956255;28;976;-65
